Time;durP1;ratioP1;P1;durP2;ratioP2;P2;SDS_P1;SDS_P2;PMS_P1;PMS_P2;Temp;Humidity;BMP_temperature;BMP_pressure;BME280_temperature;BME280_humidity;BME280_pressure;Samples;Min_cycle;Max_cycle;Signal;HPM_P1;HPM_P2
2022/09/18 00:00:19;;;;;;;;;;;9.20;99.90;;;;;;6139495;23;20323;-83
2022/09/18 00:02:45;;;;;;;4.85;1.10;;;10.00;99.90;;;;;;6190893;23;19935;-81
2022/09/18 00:05:28;;;;;;;4.90;1.25;;;10.10;99.90;;;;;;6180221;22;20015;-80
2022/09/18 00:07:53;;;;;;;6.63;1.42;;;10.10;99.90;;;;;;6263047;22;20256;-82
2022/09/18 00:10:56;;;;;;;6.80;1.10;;;10.20;99.90;;;;;;6262642;22;20066;-81
2022/09/18 00:16:57;;;;;;;3.72;1.20;;;10.40;99.90;;;;;;6165205;23;20280;-80
2022/09/18 00:20:09;;;;;;;3.08;1.15;;;10.30;99.90;;;;;;6116879;23;20005;-79
2022/09/18 00:22:35;;;;;;;6.43;1.30;;;10.50;99.90;;;;;;6211721;22;20112;-81
2022/09/18 00:25:01;;;;;;;10.52;1.20;;;10.40;99.90;;;;;;6263535;22;20224;-82
2022/09/18 00:27:27;;;;;;;6.53;1.50;;;10.30;99.90;;;;;;6261501;22;20069;-82
2022/09/18 00:29:53;;;;;;;5.57;1.30;;;10.50;99.90;;;;;;6290496;22;20018;-80
2022/09/18 00:32:18;;;;;;;9.20;1.48;;;10.60;99.90;;;;;;6291471;22;20019;-81
2022/09/18 00:34:44;;;;;;;8.75;1.38;;;10.50;99.90;;;;;;6293614;22;20228;-80
2022/09/18 00:37:10;;;;;;;5.72;1.60;;;10.40;99.90;;;;;;6267535;22;20289;-79
2022/09/18 00:39:36;;;;;;;9.52;1.58;;;10.30;99.90;;;;;;6290589;22;20056;-79
2022/09/18 00:42:01;;;;;;;6.75;1.20;;;10.40;99.90;;;;;;6318434;22;20091;-81
2022/09/18 00:44:27;;;;;;;8.90;1.60;;;10.50;99.90;;;;;;6293111;22;20019;-79
2022/09/18 00:46:53;;;;;;;9.63;1.60;;;10.50;99.90;;;;;;6318823;22;20251;-82
2022/09/18 00:49:24;;;;;;;6.13;1.90;;;10.30;99.90;;;;;;6293562;22;20184;-81
2022/09/18 00:51:54;;;;;;;9.63;1.45;;;10.50;99.90;;;;;;6291470;22;20034;-84
2022/09/18 00:54:25;;;;;;;5.57;1.55;;;10.60;99.90;;;;;;6292829;22;20034;-82
2022/09/18 00:56:57;;;;;;;4.57;1.63;;;10.60;99.90;;;;;;6293003;22;20066;-83
2022/09/18 00:59:30;;;;;;;9.32;1.52;;;10.60;99.90;;;;;;6293150;22;20292;-83
2022/09/18 01:01:58;;;;;;;6.38;1.65;;;10.80;99.90;;;;;;6292388;22;20018;-81
2022/09/18 01:04:24;;;;;;;6.80;1.50;;;10.80;99.90;;;;;;6293221;22;20018;-81
2022/09/18 01:07:08;;;;;;;8.13;1.25;;;11.10;99.90;;;;;;6292938;22;20011;-83
2022/09/18 01:10:09;;;;;;;6.20;1.17;;;11.00;99.90;;;;;;6293327;22;20225;-82
2022/09/18 01:13:28;;;;;;;4.10;0.90;;;10.70;99.90;;;;;;6269711;22;20019;-82
2022/09/18 01:16:12;;;;;;;9.32;1.60;;;10.70;99.90;;;;;;6224478;23;20015;-83
2022/09/18 01:23:09;;;;;;;6.40;1.25;;;9.90;99.90;;;;;;6314519;22;20011;-81
2022/09/18 01:26:02;;;;;;;6.43;1.60;;;10.80;99.90;;;;;;6292506;22;20310;-81
2022/09/18 01:28:40;;;;;;;4.20;1.00;;;10.30;99.90;;;;;;6292708;22;20015;-81
2022/09/18 01:31:12;;;;;;;5.60;1.10;;;11.00;99.90;;;;;;6290583;22;20010;-81
2022/09/18 01:33:48;;;;;;;5.88;1.38;;;11.00;99.90;;;;;;6318446;22;20305;-82
2022/09/18 01:36:19;;;;;;;4.38;1.08;;;10.90;99.90;;;;;;6291161;22;20041;-82
2022/09/18 01:38:53;;;;;;;8.60;1.25;;;11.00;99.90;;;;;;6293116;22;20010;-82
2022/09/18 01:41:26;;;;;;;7.37;1.10;;;10.90;99.90;;;;;;6318089;22;20006;-82
2022/09/18 01:44:02;;;;;;;5.55;1.20;;;10.90;99.90;;;;;;6291397;22;20182;-82
2022/09/18 01:46:28;;;;;;;6.97;1.20;;;10.80;99.90;;;;;;6318279;22;20018;-82
2022/09/18 01:49:12;;;;;;;5.70;1.00;;;10.60;99.90;;;;;;6266914;22;20006;-81
2022/09/18 01:51:49;;;;;;;5.95;1.27;;;10.60;99.90;;;;;;6318229;22;20235;-81
2022/09/18 01:54:50;;;;;;;5.97;1.17;;;10.60;99.90;;;;;;6317930;22;20061;-81
2022/09/18 01:57:19;;;;;;;4.68;1.10;;;10.50;99.90;;;;;;6304753;22;20006;-80
2022/09/18 02:00:03;;;;;;;5.05;1.23;;;10.50;99.90;;;;;;6289686;22;20006;-80
2022/09/18 02:02:40;;;;;;;4.45;1.05;;;10.50;99.90;;;;;;6290507;22;20010;-81
2022/09/18 02:05:09;;;;;;;5.28;1.40;;;10.60;99.90;;;;;;6318213;22;20011;-80
2022/09/18 02:07:58;;;;;;;6.07;1.17;;;10.50;99.90;;;;;;6317920;22;20082;-80
2022/09/18 02:10:25;;;;;;;11.45;1.60;;;10.40;99.90;;;;;;6318105;22;20045;-81
2022/09/18 02:13:05;;;;;;;;;;;;;;;;;;;;;
2022/09/18 02:19:55;;;;;;;4.03;1.73;;;9.50;99.90;;;;;;6217643;23;20072;-81
2022/09/18 02:22:23;;;;;;;6.75;0.95;;;11.50;99.90;;;;;;6199709;23;20015;-81
2022/09/18 02:24:52;;;;;;;5.65;1.10;;;10.30;99.90;;;;;;6224057;23;20078;-82
2022/09/18 02:27:19;;;;;;;5.35;0.90;;;10.40;99.90;;;;;;6259245;22;20215;-81
2022/09/18 02:29:46;;;;;;;10.63;1.33;;;10.40;99.90;;;;;;6316820;22;20040;-81
2022/09/18 02:32:13;;;;;;;6.85;1.10;;;10.50;99.90;;;;;;6292175;22;20026;-81
2022/09/18 02:34:57;;;;;;;9.90;1.45;;;10.50;99.90;;;;;;6317765;22;20011;-80
2022/09/18 02:38:13;;;;;;;7.10;1.40;;;10.30;99.90;;;;;;6319575;22;20018;-81
2022/09/18 02:40:51;;;;;;;5.18;1.42;;;9.30;99.90;;;;;;6291901;22;19999;-81
2022/09/18 02:43:34;;;;;;;6.22;1.75;;;10.50;99.90;;;;;;6318345;22;20010;-81
2022/09/18 02:46:20;;;;;;;9.98;1.35;;;10.60;99.90;;;;;;6291889;22;20022;-81
2022/09/18 02:49:08;;;;;;;7.40;1.25;;;10.40;99.90;;;;;;6271478;22;20007;-82
2022/09/18 02:51:45;;;;;;;4.78;1.40;;;10.70;99.90;;;;;;6291810;22;20079;-82
2022/09/18 02:54:16;;;;;;;10.30;1.30;;;10.50;99.90;;;;;;6346088;22;20003;-81
2022/09/18 02:56:54;;;;;;;9.15;1.80;;;10.60;99.90;;;;;;6290750;22;20011;-82
2022/09/18 02:59:29;;;;;;;7.40;1.23;;;10.80;99.90;;;;;;6291431;22;20003;-80
2022/09/18 03:01:56;;;;;;;;;;;10.60;99.90;;;;;;6291393;22;20011;-79
2022/09/18 03:04:24;;;;;;;8.00;1.60;;;10.60;99.90;;;;;;6291346;22;20203;-79
2022/09/18 03:06:51;;;;;;;7.30;1.42;;;10.70;99.90;;;;;;6315916;22;20132;-78
2022/09/18 03:09:17;;;;;;;12.48;2.42;;;10.70;99.90;;;;;;6316037;22;20178;-79
2022/09/18 03:11:43;;;;;;;5.85;1.45;;;10.60;99.90;;;;;;6291270;22;20088;-79
2022/09/18 03:14:10;;;;;;;14.07;1.80;;;10.90;99.90;;;;;;6266386;22;20010;-81
2022/09/18 03:16:36;;;;;;;5.78;1.60;;;10.80;99.90;;;;;;6291360;22;20006;-79
2022/09/18 03:19:02;;;;;;;8.93;1.60;;;10.80;99.90;;;;;;6316441;22;20069;-80
2022/09/18 03:21:27;;;;;;;11.13;1.80;;;11.00;99.90;;;;;;6343572;22;20028;-78
2022/09/18 03:23:56;;;;;;;9.00;1.52;;;10.80;99.90;;;;;;6345080;22;20010;-79
2022/09/18 03:26:22;;;;;;;9.40;1.50;;;10.60;99.90;;;;;;6317478;22;20248;-80
2022/09/18 03:29:25;;;;;;;8.95;1.50;;;10.90;99.90;;;;;;6292091;22;20010;-80
2022/09/18 03:39:31;;;;;;;7.00;1.65;;;10.80;99.90;;;;;;5935899;24;20023;-79
2022/09/18 03:41:57;;;;;;;9.15;1.50;;;10.40;99.90;;;;;;5996468;23;20243;-82
2022/09/18 03:44:23;;;;;;;6.38;1.10;;;11.20;99.90;;;;;;6146650;22;20037;-81
2022/09/18 03:46:58;;;;;;;12.50;1.55;;;11.00;99.90;;;;;;6238403;22;20007;-82
2022/09/18 03:49:25;;;;;;;9.68;1.90;;;11.00;99.90;;;;;;6261443;22;20332;-80
2022/09/18 03:51:51;;;;;;;7.03;1.50;;;10.70;99.90;;;;;;6237570;22;20017;-78
2022/09/18 03:54:16;;;;;;;7.55;1.40;;;11.00;99.90;;;;;;6287842;22;20201;-81
2022/09/18 03:56:42;;;;;;;5.88;1.30;;;10.80;99.90;;;;;;6263556;22;20301;-82
2022/09/18 03:59:08;;;;;;;4.57;1.50;;;10.70;99.90;;;;;;6236935;22;20030;-80
2022/09/18 04:01:36;;;;;;;5.88;1.58;;;11.10;99.90;;;;;;6261299;22;20007;-80
2022/09/18 04:04:02;;;;;;;5.82;1.27;;;11.10;99.90;;;;;;6236300;22;20058;-82
2022/09/18 04:06:27;;;;;;;9.13;1.40;;;10.90;99.90;;;;;;6261791;22;20056;-79
2022/09/18 04:08:53;;;;;;;7.70;1.35;;;11.00;99.90;;;;;;6288556;22;20015;-80
2022/09/18 04:11:19;;;;;;;11.70;1.70;;;10.70;99.90;;;;;;6236905;22;20011;-81
2022/09/18 04:13:44;;;;;;;6.85;1.10;;;10.70;99.90;;;;;;6262034;22;20237;-83
2022/09/18 04:16:10;;;;;;;6.20;1.20;;;10.90;99.90;;;;;;6263910;22;20007;-80
2022/09/18 04:18:36;;;;;;;8.45;1.48;;;12.10;99.90;;;;;;6262285;22;20006;-84
2022/09/18 04:21:05;;;;;;;5.00;1.05;;;10.80;99.90;;;;;;6262678;22;20209;-81
2022/09/18 04:23:31;;;;;;;5.22;0.90;;;11.10;99.90;;;;;;6287710;22;20320;-78
2022/09/18 04:26:07;;;;;;;3.80;1.20;;;10.80;99.90;;;;;;6287371;22;20010;-81
2022/09/18 04:28:33;;;;;;;6.50;1.35;;;10.80;99.90;;;;;;6238237;22;20190;-81
2022/09/18 04:30:59;;;;;;;8.32;1.25;;;11.00;99.90;;;;;;6266640;22;20038;-81
2022/09/18 04:33:25;;;;;;;4.55;1.00;;;11.10;99.90;;;;;;6292025;22;20015;-78
2022/09/18 04:35:51;;;;;;;5.85;1.15;;;10.80;99.90;;;;;;6293472;22;20116;-81
2022/09/18 04:38:18;;;;;;;6.25;1.63;;;10.80;99.90;;;;;;6317851;22;20266;-81
2022/09/18 04:40:43;;;;;;;8.25;1.10;;;11.00;99.90;;;;;;6318674;22;20014;-80
2022/09/18 04:43:10;;;;;;;9.20;1.50;;;11.10;99.90;;;;;;6318751;22;20042;-82
2022/09/18 04:45:36;;;;;;;5.68;1.45;;;10.90;99.90;;;;;;6267633;22;20037;-80
2022/09/18 04:48:24;;;;;;;11.48;2.05;;;10.90;99.90;;;;;;6293257;22;20044;-81
2022/09/18 04:50:50;;;;;;;8.68;1.88;;;10.40;99.90;;;;;;6292873;22;20064;-81
2022/09/18 04:53:23;;;;;;;9.55;1.55;;;11.10;99.90;;;;;;6318208;22;20034;-82
2022/09/18 04:55:55;;;;;;;7.38;1.80;;;11.20;99.90;;;;;;6293736;22;20067;-81
2022/09/18 04:59:10;;;;;;;10.40;1.40;;;11.20;99.90;;;;;;6269297;22;20013;-82
2022/09/18 05:01:36;;;;;;;8.57;1.52;;;11.20;99.90;;;;;;6280698;22;20019;-83
2022/09/18 05:04:02;;;;;;;5.45;1.40;;;11.20;99.90;;;;;;6267423;22;20099;-81
2022/09/18 05:06:27;;;;;;;8.73;1.60;;;9.80;99.90;;;;;;6318554;22;20018;-83
2022/09/18 05:13:31;;;;;;;6.03;1.10;;;10.10;99.90;;;;;;6219186;23;20088;-83
2022/09/18 05:16:02;;;;;;;9.85;1.20;;;11.40;99.90;;;;;;6192005;23;20243;-83
2022/09/18 05:19:13;;;;;;;4.68;1.15;;;11.50;99.90;;;;;;6195803;23;20068;-84
2022/09/18 05:21:57;;;;;;;9.32;1.63;;;11.40;99.90;;;;;;6271080;22;20061;-79
2022/09/18 05:24:34;;;;;;;7.00;1.52;;;10.90;99.90;;;;;;6287133;22;20248;-83
2022/09/18 05:30:13;;;;;;;5.05;1.50;;;11.30;99.90;;;;;;6264820;22;20077;-80
2022/09/18 05:33:00;;;;;;;8.95;1.70;;;11.30;99.90;;;;;;6261076;22;20011;-81
2022/09/18 05:36:02;;;;;;;6.82;1.45;;;10.90;99.90;;;;;;6285121;22;20046;-78
2022/09/18 05:38:28;;;;;;;3.75;1.13;;;9.90;99.90;;;;;;6286215;22;20057;-78
2022/09/18 05:40:59;;;;;;;7.45;1.42;;;10.50;99.90;;;;;;6259966;22;20015;-79
2022/09/18 05:47:18;;;;;;;8.23;1.20;;;11.10;99.90;;;;;;6165544;23;20025;-77
2022/09/18 05:49:43;;;;;;;7.43;1.23;;;10.80;99.90;;;;;;6261196;22;20041;-78
2022/09/18 05:52:09;;;;;;;8.82;1.10;;;10.80;99.90;;;;;;6284902;22;20309;-78
2022/09/18 05:54:36;;;;;;;7.55;1.17;;;10.90;99.90;;;;;;6265368;22;20065;-82
2022/09/18 05:57:02;;;;;;;3.53;1.30;;;11.30;99.90;;;;;;6265452;22;20014;-79
2022/09/18 05:59:31;;;;;;;7.63;1.38;;;11.40;99.90;;;;;;6318817;22;20182;-78
2022/09/18 06:01:56;;;;;;;10.25;1.45;;;11.50;99.90;;;;;;6267279;22;20018;-81
2022/09/18 06:04:43;;;;;;;6.93;1.10;;;10.80;99.90;;;;;;6267078;22;20010;-82
2022/09/18 06:07:14;;;;;;;5.80;1.15;;;10.90;99.90;;;;;;6268539;22;20014;-83
2022/09/18 06:09:57;;;;;;;5.20;1.20;;;9.90;99.90;;;;;;6269731;22;20011;-84
2022/09/18 06:12:49;;;;;;;6.15;1.30;;;11.20;99.90;;;;;;6292567;22;20051;-82
2022/09/18 06:15:19;;;;;;;4.88;1.30;;;11.00;99.90;;;;;;6243459;23;20008;-82
2022/09/18 06:18:13;;;;;;;5.45;1.02;;;11.20;99.90;;;;;;6282627;22;20170;-82
2022/09/18 06:20:41;;;;;;;4.28;1.00;;;10.40;99.90;;;;;;6292572;22;20007;-83
2022/09/18 06:23:07;;;;;;;7.70;1.77;;;10.70;99.90;;;;;;6293493;22;20074;-82
2022/09/18 06:25:45;;;;;;;7.57;1.50;;;10.90;99.90;;;;;;6292308;22;20068;-83
2022/09/18 06:28:18;;;;;;;12.07;1.80;;;11.00;99.90;;;;;;6292461;22;20170;-83
2022/09/18 06:30:46;;;;;;;9.35;1.25;;;11.00;99.90;;;;;;6268119;22;20018;-82
2022/09/18 06:33:16;;;;;;;6.28;1.00;;;12.50;99.90;;;;;;6291805;22;20015;-82
2022/09/18 06:35:48;;;;;;;10.30;1.52;;;11.20;99.90;;;;;;6294134;22;20060;-82
2022/09/18 06:38:32;;;;;;;6.95;1.92;;;10.00;99.90;;;;;;6296100;22;20064;-82
2022/09/18 06:40:58;;;;;;;7.63;1.35;;;11.60;99.90;;;;;;6291679;22;20014;-82
2022/09/18 06:43:27;;;;;;;7.28;1.10;;;11.40;99.90;;;;;;6291090;22;20033;-81
2022/09/18 06:46:08;;;;;;;6.25;1.55;;;11.70;99.90;;;;;;6265764;22;20011;-81
2022/09/18 06:48:35;;;;;;;9.50;1.77;;;10.80;99.90;;;;;;6318041;22;20106;-81
2022/09/18 06:51:16;;;;;;;8.15;1.35;;;10.90;99.90;;;;;;6266484;22;20056;-81
2022/09/18 06:54:12;;;;;;;7.97;1.75;;;11.40;99.90;;;;;;6290896;22;20205;-81
2022/09/18 06:57:05;;;;;;;12.85;1.60;;;10.80;99.90;;;;;;6291689;22;20028;-82
2022/09/18 06:59:35;;;;;;;9.23;1.60;;;11.70;99.90;;;;;;6317095;22;20007;-82
2022/09/18 07:02:01;;;;;;;8.05;1.33;;;12.00;99.90;;;;;;6317482;22;20447;-81
2022/09/18 07:15:30;;;;;;;6.18;0.95;;;9.70;99.90;;;;;;6204366;22;20012;-82
2022/09/18 07:17:58;;;;;;;7.28;1.55;;;11.70;99.90;;;;;;6291120;22;20049;-81
2022/09/18 07:20:24;;;;;;;5.20;1.08;;;11.00;99.90;;;;;;6265700;22;20042;-81
2022/09/18 07:26:32;;;;;;;5.32;1.42;;;10.90;99.90;;;;;;6324821;22;20074;-82
2022/09/18 07:29:02;;;;;;;6.80;1.75;;;10.20;99.90;;;;;;6341619;22;20060;-82
2022/09/18 07:31:34;;;;;;;4.97;1.10;;;11.80;99.90;;;;;;6283204;22;20023;-82
2022/09/18 07:34:22;;;;;;;6.82;0.85;;;11.20;99.90;;;;;;6287501;22;20046;-83
2022/09/18 07:36:49;;;;;;;4.80;1.00;;;11.50;99.90;;;;;;6288274;22;20072;-82
2022/09/18 07:39:22;;;;;;;3.92;0.88;;;11.90;99.90;;;;;;6262798;22;20011;-83
2022/09/18 07:41:48;;;;;;;5.68;0.80;;;11.70;99.90;;;;;;6260454;22;20017;-83
2022/09/18 07:44:14;;;;;;;7.88;1.20;;;10.90;99.90;;;;;;6237463;22;20217;-83
2022/09/18 07:47:18;;;;;;;5.30;1.00;;;13.00;99.90;;;;;;6262854;22;20116;-81
2022/09/18 07:49:44;;;;;;;5.22;1.30;;;12.00;99.90;;;;;;6235938;22;20492;-80
2022/09/18 07:52:17;;;;;;;4.65;1.20;;;11.30;99.90;;;;;;6237405;22;20011;-83
2022/09/18 07:54:58;;;;;;;8.93;1.33;;;12.00;99.90;;;;;;6288933;22;20004;-82
2022/09/18 07:57:27;;;;;;;6.30;1.25;;;11.60;99.90;;;;;;6238208;22;20015;-82
2022/09/18 07:59:53;;;;;;;8.57;1.35;;;12.10;99.90;;;;;;6262892;22;20003;-81
2022/09/18 08:02:18;;;;;;;4.63;1.25;;;11.40;99.90;;;;;;6287743;22;20011;-81
2022/09/18 08:04:44;;;;;;;7.13;1.40;;;12.10;99.90;;;;;;6236781;22;20261;-81
2022/09/18 08:07:38;;;;;;;11.05;1.67;;;11.20;99.90;;;;;;6263019;22;20050;-81
2022/09/18 08:10:09;;;;;;;7.75;1.60;;;10.80;99.90;;;;;;6262830;22;20010;-81
2022/09/18 08:12:35;;;;;;;8.50;1.60;;;11.40;99.90;;;;;;6260014;22;20011;-80
2022/09/18 08:15:01;;;;;;;8.32;1.35;;;11.60;99.90;;;;;;6237871;22;20015;-79
2022/09/18 08:17:27;;;;;;;6.65;1.35;;;11.90;99.90;;;;;;6239096;22;20022;-79
2022/09/18 08:19:53;;;;;;;12.18;1.52;;;11.70;99.90;;;;;;6239291;22;20030;-80
2022/09/18 08:22:19;;;;;;;6.30;1.20;;;13.10;99.90;;;;;;6289173;22;20073;-78
2022/09/18 08:24:45;;;;;;;5.82;1.50;;;11.20;99.90;;;;;;6238586;22;20193;-80
2022/09/18 08:27:14;;;;;;;10.57;1.70;;;12.10;99.90;;;;;;6265201;22;20244;-81
2022/09/18 08:29:40;;;;;;;6.70;1.60;;;11.90;99.90;;;;;;6238772;22;20015;-83
2022/09/18 08:32:06;;;;;;;6.80;1.27;;;13.20;99.90;;;;;;6289029;22;20050;-84
2022/09/18 08:34:31;;;;;;;5.65;1.33;;;11.60;99.90;;;;;;6263254;22;20007;-83
2022/09/18 08:36:57;;;;;;;9.98;1.75;;;12.10;99.90;;;;;;6264392;22;20007;-81
2022/09/18 08:39:25;;;;;;;3.72;1.17;;;11.90;99.90;;;;;;6264484;22;20010;-83
2022/09/18 08:42:26;;;;;;;6.13;1.30;;;11.30;99.90;;;;;;6238427;22;20193;-81
2022/09/18 08:45:17;;;;;;;5.50;1.40;;;12.20;99.90;;;;;;6263557;22;20194;-82
2022/09/18 08:48:10;;;;;;;5.70;1.70;;;11.70;99.90;;;;;;6210002;22;20014;-82
2022/09/18 08:51:06;;;;;;;;;;;;;;;;;;;;;
2022/09/18 08:54:26;;;;;;;3.80;0.90;;;11.50;99.90;;;;;;6289429;22;20012;-82
2022/09/18 08:57:09;;;;;;;6.57;1.40;;;10.10;99.90;;;;;;6198490;22;20313;-82
2022/09/18 09:07:37;;;;;;;4.43;1.55;;;11.40;99.90;;;;;;6158219;22;20030;-83
2022/09/18 09:14:01;;;;;;;5.50;1.80;;;13.60;99.90;;;;;;6222966;22;20019;-80
2022/09/18 09:17:27;;;;;;;6.03;1.67;;;12.20;99.90;;;;;;6263657;22;20189;-81
2022/09/18 09:20:15;;;;;;;9.77;1.42;;;10.60;99.90;;;;;;6166175;23;20013;-81
2022/09/18 09:23:02;;;;;;;6.85;1.50;;;11.10;99.90;;;;;;6166953;23;20017;-81
2022/09/18 09:25:44;;;;;;;5.72;1.20;;;12.30;99.90;;;;;;6236145;22;20056;-82
2022/09/18 09:28:13;;;;;;;8.40;1.27;;;12.00;99.90;;;;;;6289410;22;20014;-82
2022/09/18 09:30:41;;;;;;;10.05;2.08;;;12.20;99.90;;;;;;6262880;22;20022;-81
2022/09/18 09:33:26;;;;;;;8.90;1.95;;;11.50;99.90;;;;;;6288736;22;20369;-81
2022/09/18 09:36:19;;;;;;;9.27;1.98;;;12.30;99.90;;;;;;6262812;22;20014;-81
2022/09/18 09:39:09;;;;;;;5.38;1.30;;;11.70;99.90;;;;;;6263155;22;20007;-80
2022/09/18 09:41:48;;;;;;;7.80;1.40;;;12.40;99.90;;;;;;6263500;22;20045;-81
2022/09/18 09:44:26;;;;;;;6.38;1.40;;;12.10;99.90;;;;;;6289865;22;20042;-81
2022/09/18 09:47:04;;;;;;;6.97;1.42;;;11.60;99.90;;;;;;6263640;22;20223;-81
2022/09/18 09:49:33;;;;;;;7.82;1.40;;;11.80;99.90;;;;;;6289775;22;20010;-81
2022/09/18 09:52:17;;;;;;;8.63;1.35;;;12.40;99.90;;;;;;6263375;22;20007;-80
2022/09/18 09:54:44;;;;;;;6.00;1.40;;;12.00;99.90;;;;;;6262935;22;20007;-80
2022/09/18 09:57:34;;;;;;;6.60;1.33;;;11.90;99.90;;;;;;6262061;22;20243;-80
2022/09/18 10:00:17;;;;;;;6.35;1.48;;;12.90;99.90;;;;;;6264001;22;20015;-81
2022/09/18 10:03:06;;;;;;;7.85;1.75;;;13.00;99.90;;;;;;6289341;22;20038;-81
2022/09/18 10:06:11;;;;;;;6.60;1.30;;;11.90;99.90;;;;;;6263305;22;20015;-80
2022/09/18 10:08:49;;;;;;;8.35;1.45;;;13.10;99.90;;;;;;6219706;22;20066;-82
2022/09/18 10:11:16;;;;;;;9.60;1.63;;;13.00;99.90;;;;;;6263817;22;20011;-81
2022/09/18 10:14:14;;;;;;;6.50;1.52;;;12.30;99.90;;;;;;6262558;22;20011;-81
2022/09/18 10:16:45;;;;;;;11.88;1.70;;;13.10;99.90;;;;;;6263415;22;20053;-81
2022/09/18 10:19:18;;;;;;;5.70;1.38;;;12.20;99.90;;;;;;6263778;22;20014;-80
2022/09/18 10:21:45;;;;;;;4.85;1.40;;;13.40;99.90;;;;;;6263114;22;20042;-80
2022/09/18 10:24:27;;;;;;;6.90;1.48;;;13.40;99.90;;;;;;6237917;22;20063;-81
2022/09/18 10:26:55;;;;;;;5.93;1.33;;;13.20;99.90;;;;;;6262614;22;20007;-80
2022/09/18 10:29:27;;;;;;;10.18;2.40;;;12.30;99.90;;;;;;6263507;22;20007;-82
2022/09/18 10:31:54;;;;;;;13.30;1.70;;;13.20;99.90;;;;;;6236831;22;20049;-82
2022/09/18 10:34:47;;;;;;;6.53;1.70;;;13.10;99.90;;;;;;6263692;22;20025;-81
2022/09/18 10:37:28;;;;;;;4.00;1.27;;;13.70;99.90;;;;;;6262860;22;20007;-80
2022/09/18 10:40:00;;;;;;;7.85;1.23;;;13.20;99.90;;;;;;6288572;22;20041;-80
2022/09/18 10:42:31;;;;;;;6.47;1.98;;;13.70;99.90;;;;;;6262962;22;20197;-79
2022/09/18 10:45:02;;;;;;;8.10;1.75;;;13.20;99.90;;;;;;6262583;22;20011;-80
2022/09/18 10:47:30;;;;;;;8.57;1.77;;;12.50;99.90;;;;;;6261039;22;20018;-81
2022/09/18 10:50:05;;;;;;;9.60;2.10;;;13.40;99.90;;;;;;6262866;22;20140;-81
2022/09/18 10:52:35;;;;;;;11.55;2.78;;;13.10;99.90;;;;;;6288290;22;20070;-81
2022/09/18 10:55:07;;;;;;;10.23;2.10;;;13.30;99.90;;;;;;6262641;22;20414;-81
2022/09/18 10:57:37;;;;;;;12.18;2.13;;;13.80;99.90;;;;;;6262098;22;20034;-79
2022/09/18 11:00:28;;;;;;;7.50;1.63;;;12.80;99.90;;;;;;6262593;22;20071;-80
2022/09/18 11:03:18;;;;;;;;;;;;;;;;;;;;;
2022/09/18 11:06:03;;;;;;;6.22;1.35;;;13.00;99.90;;;;;;6288133;22;20094;-81
2022/09/18 11:08:36;;;;;;;5.05;1.38;;;14.10;99.90;;;;;;6263234;22;20231;-80
2022/09/18 11:11:09;;;;;;;4.68;1.38;;;13.30;99.90;;;;;;6261816;22;20017;-82
2022/09/18 11:13:48;;;;;;;4.68;1.40;;;13.20;99.90;;;;;;6263507;22;20262;-80
2022/09/18 11:16:26;;;;;;;6.93;1.10;;;13.20;99.90;;;;;;6263098;22;20070;-82
2022/09/18 11:19:12;;;;;;;5.75;1.30;;;13.10;99.90;;;;;;6288577;22;20185;-81
2022/09/18 11:21:47;;;;;;;5.47;1.23;;;13.60;99.90;;;;;;6262732;22;20034;-81
2022/09/18 11:24:29;;;;;;;4.78;1.42;;;13.60;99.90;;;;;;6262937;22;20039;-80
2022/09/18 11:26:58;;;;;;;3.92;0.95;;;13.10;99.90;;;;;;6262316;22;20011;-80
2022/09/18 11:29:31;;;;;;;5.57;1.10;;;13.70;99.90;;;;;;6236069;22;20066;-77
2022/09/18 11:32:00;;;;;;;5.13;1.23;;;14.10;99.90;;;;;;6261095;22;20065;-79
2022/09/18 11:34:34;;;;;;;4.15;0.90;;;13.40;99.90;;;;;;6262577;22;20316;-79
2022/09/18 11:37:10;;;;;;;6.88;1.40;;;13.20;99.90;;;;;;6261492;22;20003;-77
2022/09/18 11:39:41;;;;;;;4.65;0.77;;;13.60;99.90;;;;;;6262377;22;20182;-79
2022/09/18 11:42:11;;;;;;;2.42;1.00;;;13.60;99.90;;;;;;6261567;22;20029;-78
2022/09/18 11:44:38;;;;;;;3.35;0.90;;;14.40;99.90;;;;;;6263212;22;20011;-79
2022/09/18 11:47:57;;;;;;;8.55;1.10;;;13.40;99.90;;;;;;6287275;22;20034;-80
2022/09/18 11:50:38;;;;;;;4.53;1.08;;;13.50;99.90;;;;;;6264194;22;20225;-78
2022/09/18 11:57:47;;;;;;;4.53;1.00;;;12.40;99.90;;;;;;6172394;22;20019;-79
2022/09/18 12:00:19;;;;;;;7.40;1.17;;;13.60;99.90;;;;;;6264330;22;20057;-81
2022/09/18 12:03:13;;;;;;;7.47;1.40;;;13.30;99.90;;;;;;6287993;22;20056;-80
2022/09/18 12:05:51;;;;;;;5.53;1.67;;;13.20;99.90;;;;;;6275793;22;20171;-78
2022/09/18 12:08:26;;;;;;;4.28;0.95;;;13.10;99.90;;;;;;6264205;22;20297;-80
2022/09/18 12:11:31;;;;;;;9.25;1.33;;;13.40;99.90;;;;;;6263700;22;20064;-79
2022/09/18 12:14:29;;;;;;;6.95;1.23;;;13.30;99.90;;;;;;6262260;22;20011;-78
2022/09/18 12:17:43;;;;;;;8.63;1.70;;;13.60;99.90;;;;;;6292981;22;20062;-79
2022/09/18 12:20:17;;;;;;;7.50;1.63;;;13.90;99.90;;;;;;6262664;22;20746;-80
2022/09/18 12:22:47;;;;;;;4.28;1.10;;;14.00;99.90;;;;;;6289660;22;20193;-79
2022/09/18 12:25:26;;;;;;;5.35;1.10;;;14.10;99.90;;;;;;6264361;22;20329;-80
2022/09/18 12:28:30;;;;;;;5.13;1.20;;;14.10;99.90;;;;;;6263634;22;20302;-78
2022/09/18 12:31:26;;;;;;;4.72;0.90;;;14.10;99.90;;;;;;6167269;23;20306;-80
2022/09/18 12:34:41;;;;;;;5.28;1.02;;;14.20;99.90;;;;;;6262342;22;20027;-82
2022/09/18 12:37:31;;;;;;;4.22;1.10;;;14.10;99.90;;;;;;6200969;22;20317;-81
2022/09/18 12:40:35;;;;;;;8.70;1.40;;;14.20;99.90;;;;;;6262956;22;20074;-79
2022/09/18 12:43:00;;;;;;;4.00;1.30;;;14.10;99.90;;;;;;6263309;22;20025;-80
2022/09/18 12:45:55;;;;;;;3.75;1.30;;;14.30;99.90;;;;;;6264193;22;20011;-79
2022/09/18 12:48:38;;;;;;;5.20;1.02;;;14.30;99.90;;;;;;6262563;22;20017;-79
2022/09/18 12:51:19;;;;;;;3.83;1.13;;;14.50;99.90;;;;;;6289505;22;20196;-81
2022/09/18 12:54:06;;;;;;;4.18;1.50;;;14.40;99.90;;;;;;6263572;22;20039;-79
2022/09/18 12:57:05;;;;;;;6.90;1.13;;;14.40;99.90;;;;;;6264303;22;20007;-80
2022/09/18 12:59:38;;;;;;;5.30;1.10;;;14.30;99.90;;;;;;6289089;22;20015;-77
2022/09/18 13:02:21;;;;;;;8.50;1.20;;;14.30;99.90;;;;;;6262823;22;20015;-81
2022/09/18 13:04:58;;;;;;;5.00;1.40;;;14.40;99.90;;;;;;6263883;22;20233;-79
2022/09/18 13:07:50;;;;;;;3.13;0.90;;;14.20;99.90;;;;;;6263699;22;20015;-81
2022/09/18 13:10:34;;;;;;;2.17;0.70;;;13.50;99.90;;;;;;6262020;22;20007;-79
2022/09/18 13:13:22;;;;;;;3.88;1.00;;;13.20;99.90;;;;;;6289298;22;20019;-79
2022/09/18 13:15:54;;;;;;;5.05;0.90;;;13.10;99.90;;;;;;6289426;22;20045;-80
2022/09/18 13:19:04;;;;;;;5.00;1.20;;;13.20;99.90;;;;;;6289726;22;20293;-79
2022/09/18 13:21:36;;;;;;;6.97;1.13;;;13.30;99.90;;;;;;6142030;23;20207;-80
2022/09/18 13:24:04;;;;;;;6.35;1.35;;;13.30;99.90;;;;;;6243115;22;20061;-79
2022/09/18 13:26:37;;;;;;;6.47;1.20;;;13.40;99.90;;;;;;6288724;22;20071;-82
2022/09/18 13:29:23;;;;;;;6.35;1.27;;;13.30;99.90;;;;;;6288346;22;20015;-78
2022/09/18 13:31:52;;;;;;;5.45;1.00;;;12.50;99.90;;;;;;6263010;22;20015;-80
2022/09/18 13:34:19;;;;;;;3.30;1.00;;;12.40;99.90;;;;;;6263341;22;20232;-79
2022/09/18 13:36:46;;;;;;;2.45;0.95;;;12.30;99.90;;;;;;6238190;22;20268;-80
2022/09/18 13:39:20;;;;;;;6.28;1.15;;;12.20;99.90;;;;;;6237994;22;20011;-82
2022/09/18 13:42:04;;;;;;;1.77;0.70;;;12.30;99.90;;;;;;6262807;22;20201;-78
2022/09/18 13:44:34;;;;;;;3.08;0.70;;;12.40;99.90;;;;;;6286410;22;20011;-80
2022/09/18 13:47:20;;;;;;;4.93;1.02;;;12.40;99.90;;;;;;6262947;22;20355;-80
2022/09/18 13:49:59;;;;;;;3.42;0.88;;;12.40;99.90;;;;;;6262742;22;20071;-81
2022/09/18 13:52:53;;;;;;;4.43;1.25;;;12.50;99.90;;;;;;6262908;22;20007;-81
2022/09/18 13:55:26;;;;;;;8.10;1.45;;;12.50;99.90;;;;;;6263591;22;20039;-82
2022/09/18 13:58:35;;;;;;;3.95;1.05;;;12.90;99.90;;;;;;6262708;22;20007;-80
2022/09/18 14:01:06;;;;;;;9.65;1.42;;;12.50;99.90;;;;;;6262353;22;20043;-80
2022/09/18 14:03:37;;;;;;;9.68;1.40;;;11.80;99.90;;;;;;6262545;22;20015;-79
2022/09/18 14:06:43;;;;;;;5.47;1.00;;;12.60;99.90;;;;;;6262675;22;20289;-78
2022/09/18 14:09:54;;;;;;;7.85;1.55;;;12.60;99.90;;;;;;6262873;22;20038;-80
2022/09/18 14:12:22;;;;;;;9.05;1.30;;;12.60;99.90;;;;;;6232559;22;20232;-80
2022/09/18 14:15:02;;;;;;;4.32;1.42;;;12.70;99.90;;;;;;6262423;22;20197;-79
2022/09/18 14:17:33;;;;;;;10.32;1.35;;;12.60;99.90;;;;;;6287109;22;20060;-79
2022/09/18 14:20:17;;;;;;;5.05;1.13;;;12.60;99.90;;;;;;6262787;22;20025;-81
2022/09/18 14:22:43;;;;;;;8.05;1.50;;;12.60;99.90;;;;;;6263144;22;20019;-81
2022/09/18 14:25:11;;;;;;;7.30;1.38;;;12.70;99.90;;;;;;6261873;22;20082;-79
2022/09/18 14:27:49;;;;;;;3.90;1.02;;;12.00;99.90;;;;;;6262721;22;20011;-80
2022/09/18 14:30:18;;;;;;;8.38;2.20;;;13.10;99.90;;;;;;6262709;22;20060;-82
2022/09/18 14:32:56;;;;;;;5.82;1.27;;;13.50;99.90;;;;;;6263123;22;20016;-81
2022/09/18 14:35:45;;;;;;;7.43;1.55;;;13.80;99.90;;;;;;6262403;22;20319;-79
2022/09/18 14:38:17;;;;;;;6.80;1.42;;;13.60;99.90;;;;;;6262630;22;20014;-81
2022/09/18 14:40:58;;;;;;;8.55;1.77;;;13.90;99.90;;;;;;6287928;22;20235;-81